Map

Track Data

SID SEASON NUMBER BASIN SUBBASIN NAME ISO_TIME NATURE LAT LON WMO_WIND WMO_PRES WMO_AGENCY TRACK_TYPE DIST2LAND LANDFALL IFLAG USA_AGENCY USA_ATCF_ID USA_LAT USA_LON USA_RECORD USA_STATUS USA_WIND USA_PRES USA_SSHS USA_R34_NE USA_R34_SE USA_R34_SW USA_R34_NW USA_R50_NE USA_R50_SE USA_R50_SW USA_R50_NW USA_R64_NE USA_R64_SE USA_R64_SW USA_R64_NW USA_POCI USA_ROCI USA_RMW USA_EYE TOKYO_LAT TOKYO_LON TOKYO_GRADE TOKYO_WIND TOKYO_PRES TOKYO_R50_DIR TOKYO_R50_LONG TOKYO_R50_SHORT TOKYO_R30_DIR TOKYO_R30_LONG TOKYO_R30_SHORT TOKYO_LAND CMA_LAT CMA_LON CMA_CAT CMA_WIND CMA_PRES HKO_LAT HKO_LON HKO_CAT HKO_WIND HKO_PRES NEWDELHI_LAT NEWDELHI_LON NEWDELHI_GRADE NEWDELHI_WIND NEWDELHI_PRES NEWDELHI_CI NEWDELHI_DP NEWDELHI_POCI REUNION_LAT REUNION_LON REUNION_TYPE REUNION_WIND REUNION_PRES REUNION_TNUM REUNION_CI REUNION_RMW REUNION_R34_NE REUNION_R34_SE REUNION_R34_SW REUNION_R34_NW REUNION_R50_NE REUNION_R50_SE REUNION_R50_SW REUNION_R50_NW REUNION_R64_NE REUNION_R64_SE REUNION_R64_SW REUNION_R64_NW BOM_LAT BOM_LON BOM_TYPE BOM_WIND BOM_PRES BOM_TNUM BOM_CI BOM_RMW BOM_R34_NE BOM_R34_SE BOM_R34_SW BOM_R34_NW BOM_R50_NE BOM_R50_SE BOM_R50_SW BOM_R50_NW BOM_R64_NE BOM_R64_SE BOM_R64_SW BOM_R64_NW BOM_ROCI BOM_POCI BOM_EYE BOM_POS_METHOD BOM_PRES_METHOD NADI_LAT NADI_LON NADI_CAT NADI_WIND NADI_PRES WELLINGTON_LAT WELLINGTON_LON WELLINGTON_WIND WELLINGTON_PRES DS824_LAT DS824_LON DS824_STAGE DS824_WIND DS824_PRES TD9636_LAT TD9636_LON TD9636_STAGE TD9636_WIND TD9636_PRES TD9635_LAT TD9635_LON TD9635_WIND TD9635_PRES TD9635_ROCI NEUMANN_LAT NEUMANN_LON NEUMANN_CLASS NEUMANN_WIND NEUMANN_PRES MLC_LAT MLC_LON MLC_CLASS MLC_WIND MLC_PRES USA_GUST BOM_GUST BOM_GUST_PER REUNION_GUST REUNION_GUST_PER USA_SEAHGT USA_SEARAD_NE USA_SEARAD_SE USA_SEARAD_SW USA_SEARAD_NW STORM_SPEED STORM_DIR
1916225N13305 1916 37 NA NA NOT_NAMED 1916-08-12 06:00:00 TS 13.4000 -55.0000 35 hurdat_atl main 719 656 O_____________ hurdat_atl AL061916 13.4000 -55.0000 TS 35 0 14 274
1916225N13305 1916 37 NA NA NOT_NAMED 1916-08-12 09:00:00 TS 13.4529 -55.6999 main 656 590 P_____________ AL061916 13.4529 -55.6999 TS 37 0 14 274
1916225N13305 1916 37 NA NA NOT_NAMED 1916-08-12 12:00:00 TS 13.5000 -56.4000 40 hurdat_atl main 590 527 O_____________ hurdat_atl AL061916 13.5000 -56.4000 TS 40 0 14 274
1916225N13305 1916 37 NA NA NOT_NAMED 1916-08-12 15:00:00 TS 13.5423 -57.1001 main 527 476 P_____________ AL061916 13.5423 -57.1001 TS 40 0 14 274
1916225N13305 1916 37 NA NA NOT_NAMED 1916-08-12 18:00:00 TS 13.6000 -57.8000 40 hurdat_atl main 476 432 O_____________ hurdat_atl AL061916 13.6000 -57.8000 TS 40 0 14 277
1916225N13305 1916 37 NA NA NOT_NAMED 1916-08-12 21:00:00 TS 13.6998 -58.4999 main 432 398 P_____________ AL061916 13.6998 -58.4999 TS 42 0 14 278
1916225N13305 1916 37 NA NA NOT_NAMED 1916-08-13 00:00:00 TS 13.8000 -59.2000 45 hurdat_atl main 398 370 O_____________ hurdat_atl AL061916 13.8000 -59.2000 TS 45 0 14 277
1916225N13305 1916 37 NA CS NOT_NAMED 1916-08-13 03:00:00 TS 13.8573 -59.9001 main 377 360 P_____________ AL061916 13.8573 -59.9001 TS 45 0 14 274
1916225N13305 1916 37 NA CS NOT_NAMED 1916-08-13 06:00:00 TS 13.9000 -60.6000 45 hurdat_atl main 360 358 O_____________ hurdat_atl AL061916 13.9000 -60.6000 TS 45 0 13 274
1916225N13305 1916 37 NA CS NOT_NAMED 1916-08-13 09:00:00 TS 13.9497 -61.2851 main 358 358 P_____________ AL061916 13.9497 -61.2851 TS 47 0 14 274
1916225N13305 1916 37 NA CS NOT_NAMED 1916-08-13 12:00:00 TS 14.0000 -62.0000 50 hurdat_atl main 370 369 O_____________ hurdat_atl AL061916 14.0000 -62.0000 TS 50 0 15 274
1916225N13305 1916 37 NA CS NOT_NAMED 1916-08-13 15:00:00 TS 14.0498 -62.7775 main 369 369 P_____________ AL061916 14.0498 -62.7775 TS 50 0 16 274
1916225N13305 1916 37 NA CS NOT_NAMED 1916-08-13 18:00:00 TS 14.1000 -63.6000 50 hurdat_atl main 384 384 O_____________ hurdat_atl AL061916 14.1000 -63.6000 TS 50 0 16 274
1916225N13305 1916 37 NA CS NOT_NAMED 1916-08-13 21:00:00 TS 14.1499 -64.4500 main 393 393 P_____________ AL061916 14.1499 -64.4500 TS 52 0 17 273
1916225N13305 1916 37 NA CS NOT_NAMED 1916-08-14 00:00:00 TS 14.2000 -65.3000 55 hurdat_atl main 410 403 O_____________ hurdat_atl AL061916 14.2000 -65.3000 TS 55 0 16 273
1916225N13305 1916 37 NA CS NOT_NAMED 1916-08-14 03:00:00 TS 14.2422 -66.1076 main 403 383 P_____________ AL061916 14.2422 -66.1076 TS 57 0 16 274
1916225N13305 1916 37 NA CS NOT_NAMED 1916-08-14 06:00:00 TS 14.3000 -66.9000 60 hurdat_atl main 383 350 O_____________ hurdat_atl AL061916 14.3000 -66.9000 TS 60 0 16 276
1916225N13305 1916 37 NA CS NOT_NAMED 1916-08-14 09:00:00 TS 14.3923 -67.7075 main 350 308 P_____________ AL061916 14.3923 -67.7075 TS 60 0 16 277
1916225N13305 1916 37 NA CS NOT_NAMED 1916-08-14 12:00:00 TS 14.5000 -68.5000 60 hurdat_atl main 308 289 O_____________ hurdat_atl AL061916 14.5000 -68.5000 TS 60 0 15 278
1916225N13305 1916 37 NA CS NOT_NAMED 1916-08-14 15:00:00 TS 14.5923 -69.2726 main 287 280 P_____________ AL061916 14.5923 -69.2726 TS 60 0 15 278
1916225N13305 1916 37 NA CS NOT_NAMED 1916-08-14 18:00:00 TS 14.7000 -70.0000 60 hurdat_atl main 291 285 O_____________ hurdat_atl AL061916 14.7000 -70.0000 TS 60 0 14 280
1916225N13305 1916 37 NA CS NOT_NAMED 1916-08-14 21:00:00 TS 14.8347 -70.6651 main 282 282 P_____________ AL061916 14.8347 -70.6651 TS 62 0 13 283
1916225N13305 1916 37 NA CS NOT_NAMED 1916-08-15 00:00:00 TS 15.0000 -71.3000 65 hurdat_atl main 291 273 O_____________ hurdat_atl AL061916 15.0000 -71.3000 HU 65 1 13 286
1916225N13305 1916 37 NA CS NOT_NAMED 1916-08-15 03:00:00 TS 15.1772 -71.9427 main 273 271 P_____________ AL061916 15.1772 -71.9427 HU 65 1 13 288
1916225N13305 1916 37 NA CS NOT_NAMED 1916-08-15 06:00:00 TS 15.4000 -72.6000 65 hurdat_atl main 277 265 O_____________ hurdat_atl AL061916 15.4000 -72.6000 HU 65 1 14 291
1916225N13305 1916 37 NA CS NOT_NAMED 1916-08-15 09:00:00 TS 15.6697 -73.2778 main 262 223 P_____________ AL061916 15.6697 -73.2778 HU 67 1 15 294
1916225N13305 1916 37 NA CS NOT_NAMED 1916-08-15 12:00:00 TS 16.0000 -74.0000 70 hurdat_atl main 224 204 O_____________ hurdat_atl AL061916 16.0000 -74.0000 HU 70 1 16 296
1916225N13305 1916 37 NA CS NOT_NAMED 1916-08-15 15:00:00 TS 16.3698 -74.7779 main 202 138 P_____________ AL061916 16.3698 -74.7779 HU 70 1 17 298
1916225N13305 1916 37 NA CS NOT_NAMED 1916-08-15 18:00:00 TS 16.8000 -75.6000 70 hurdat_atl main 138 78 O_____________ hurdat_atl AL061916 16.8000 -75.6000 HU 70 1 18 300
1916225N13305 1916 37 NA CS NOT_NAMED 1916-08-15 21:00:00 TS 17.2772 -76.4428 main 67 0 P_____________ AL061916 17.2772 -76.4428 HU 72 1 19 302
1916225N13305 1916 37 NA CS NOT_NAMED 1916-08-16 00:00:00 TS 17.8000 -77.3000 75 hurdat_atl main 0 0 O_____________ hurdat_atl AL061916 17.8000 -77.3000 HU 75 1 20 304
1916225N13305 1916 37 NA CS NOT_NAMED 1916-08-16 03:00:00 TS 18.3571 -78.1502 main 0 0 P_____________ AL061916 18.3571 -78.1502 HU 75 1 20 304
1916225N13305 1916 37 NA CS NOT_NAMED 1916-08-16 06:00:00 TS 18.9000 -79.0000 75 hurdat_atl main 92 92 O_____________ hurdat_atl AL061916 18.9000 -79.0000 HU 75 1 19 302
1916225N13305 1916 37 NA CS NOT_NAMED 1916-08-16 09:00:00 TS 19.3796 -79.8504 main 202 202 P_____________ AL061916 19.3796 -79.8504 HU 77 1 18 299
1916225N13305 1916 37 NA CS NOT_NAMED 1916-08-16 12:00:00 TS 19.8000 -80.7000 80 hurdat_atl main 224 187 O_____________ hurdat_atl AL061916 19.8000 -80.7000 HU 80 1 18 297
1916225N13305 1916 37 NA CS NOT_NAMED 1916-08-16 15:00:00 TS 20.1796 -81.5504 main 182 108 P_____________ AL061916 20.1796 -81.5504 HU 82 1 17 294
1916225N13305 1916 37 NA CS NOT_NAMED 1916-08-16 18:00:00 TS 20.5000 -82.4000 85 hurdat_atl main 108 78 O_____________ hurdat_atl AL061916 20.5000 -82.4000 HU 85 2 17 290
1916225N13305 1916 37 NA CS NOT_NAMED 1916-08-16 21:00:00 TS 20.7646 -83.2505 main 84 84 P_____________ AL061916 20.7646 -83.2505 HU 87 2 17 287
1916225N13305 1916 37 NA CS NOT_NAMED 1916-08-17 00:00:00 TS 21.0000 -84.1000 90 hurdat_atl main 98 67 O_____________ hurdat_atl AL061916 21.0000 -84.1000 HU 90 2 17 287
1916225N13305 1916 37 NA CS NOT_NAMED 1916-08-17 03:00:00 TS 21.2495 -84.9428 main 67 59 P_____________ AL061916 21.2495 -84.9428 HU 92 2 17 288
1916225N13305 1916 37 NA CS NOT_NAMED 1916-08-17 06:00:00 TS 21.5000 -85.8000 95 hurdat_atl main 93 45 O_____________ hurdat_atl AL061916 21.5000 -85.8000 HU 95 2 17 286
1916225N13305 1916 37 NA GM NOT_NAMED 1916-08-17 09:00:00 TS 21.7271 -86.6932 main 38 33 P_____________ AL061916 21.7271 -86.6932 HU 100 3 17 287
1916225N13305 1916 37 NA GM NOT_NAMED 1916-08-17 12:00:00 TS 22.0000 -87.6000 105 hurdat_atl main 56 55 O_____________ hurdat_atl AL061916 22.0000 -87.6000 HU 105 3 18 291
1916225N13305 1916 37 NA GM NOT_NAMED 1916-08-17 15:00:00 TS 22.3695 -88.5003 main 100 100 P_____________ AL061916 22.3695 -88.5003 HU 107 3 18 296
1916225N13305 1916 37 NA GM NOT_NAMED 1916-08-17 18:00:00 TS 22.8000 -89.4000 110 hurdat_atl main 167 167 O_____________ hurdat_atl AL061916 22.8000 -89.4000 HU 110 3 19 298
1916225N13305 1916 37 NA GM NOT_NAMED 1916-08-17 21:00:00 TS 23.2420 -90.3005 main 227 227 P_____________ AL061916 23.2420 -90.3005 HU 112 3 19 299
1916225N13305 1916 37 NA GM NOT_NAMED 1916-08-18 00:00:00 TS 23.7000 -91.2000 115 hurdat_atl main 305 305 O_____________ hurdat_atl AL061916 23.7000 -91.2000 HU 115 4 19 299
1916225N13305 1916 37 NA GM NOT_NAMED 1916-08-18 03:00:00 TS 24.1496 -92.1080 main 382 382 P_____________ AL061916 24.1496 -92.1080 HU 115 4 19 299
1916225N13305 1916 37 NA GM NOT_NAMED 1916-08-18 06:00:00 TS 24.6000 -93.0000 115 hurdat_atl main 437 348 O_____________ hurdat_atl AL061916 24.6000 -93.0000 HU 115 4 18 299
1916225N13305 1916 37 NA GM NOT_NAMED 1916-08-18 09:00:00 TS 25.0495 -93.8656 main 338 246 P_____________ AL061916 25.0495 -93.8656 HU 115 4 18 300
1916225N13305 1916 37 NA GM NOT_NAMED 1916-08-18 12:00:00 TS 25.5000 -94.7000 115 hurdat_atl main 246 160 O_____________ hurdat_atl AL061916 25.5000 -94.7000 HU 115 4 17 301
1916225N13305 1916 37 NA GM NOT_NAMED 1916-08-18 15:00:00 TS 25.9494 -95.5032 main 160 91 P_____________ AL061916 25.9494 -95.5032 HU 115 4 17 302
1916225N13305 1916 37 NA GM NOT_NAMED 1916-08-18 18:00:00 TS 26.4000 -96.3000 115 932 hurdat_atl main 91 37 O_____________ hurdat_atl AL061916 26.4000 -96.3000 HU 115 932 4 17 302
1916225N13305 1916 37 NA GM NOT_NAMED 1916-08-18 21:00:00 TS 26.8701 -97.1542 main 29 9 P_____________ AL061916 26.8701 -97.1542 HU 115 932 4 17 301
1916225N13305 1916 37 NA GM NOT_NAMED 1916-08-18 22:00:00 TS 27.0000 -97.4000 115 932 hurdat_atl main 9 0 O_____________ hurdat_atl AL061916 27.0000 -97.4000 L HU 115 932 4 13 300
1916225N13305 1916 37 NA NA NOT_NAMED 1916-08-19 00:00:00 TS 27.2000 -97.8000 90 940 hurdat_atl main 0 0 O_____________ hurdat_atl AL061916 27.2000 -97.8000 HU 90 940 2 14 301
1916225N13305 1916 37 NA NA NOT_NAMED 1916-08-19 03:00:00 TS 27.6088 -98.5215 main 0 0 P_____________ AL061916 27.6088 -98.5215 HU 75 1 16 304
1916225N13305 1916 37 NA NA NOT_NAMED 1916-08-19 06:00:00 TS 28.1000 -99.3000 60 hurdat_atl main 0 0 O_____________ hurdat_atl AL061916 28.1000 -99.3000 TS 60 0 17 306
1916225N13305 1916 37 NA NA NOT_NAMED 1916-08-19 09:00:00 TS 28.5924 -100.038 main 0 0 P_____________ AL061916 28.5924 -100.038 TS 50 0 16 309
1916225N13305 1916 37 NA NA NOT_NAMED 1916-08-19 12:00:00 TS 29.1000 -100.700 40 hurdat_atl main 0 0 O_____________ hurdat_atl AL061916 29.1000 -100.700 TS 40 0 15 313
1916225N13305 1916 37 NA NA NOT_NAMED 1916-08-19 15:00:00 TS 29.5921 -101.246 main 0 0 P_____________ AL061916 29.5921 -101.246 TS 35 0 13 319
1916225N13305 1916 37 NA NA NOT_NAMED 1916-08-19 18:00:00 TS 30.1000 -101.700 30 hurdat_atl main 0 0 O_____________ hurdat_atl AL061916 30.1000 -101.700 TD 30 -1 13 325
1916225N13305 1916 37 NA NA NOT_NAMED 1916-08-19 21:00:00 TS 30.6403 -102.109 main 0 0 P_____________ AL061916 30.6403 -102.109 TD 27 -1 13 328
1916225N13305 1916 37 NA NA NOT_NAMED 1916-08-20 00:00:00 TS 31.2000 -102.500 25 hurdat_atl main 0 O_____________ hurdat_atl AL061916 31.2000 -102.500 TD 25 -1 13 329

About IBTrACS Database

This database is a web-friendly format of International Best Track Archive for Climate Stewardship (IBTrACS), a global best track data archive curated by NOAA dating back to 1842.

Updated: 2021-11-26